Dades meteomassalio
 
Diari Summary for Juliol 20, 2018 Units:  Metric    English   Both
« Previous Day
Next Day »
Diari Semanal Mensual Anual Personalitzat
  Actual: Maxima: Minima: Mijana:
Temperatura: -3.6 °C -17.8 °C -8.8 °C -4.4 °C
Rosada: -9 °C -17.8 °C -10.9 °C -9 °C
Humitat: 55 % Humidity % 32 % 62 %
Velocitat del vent: 56.6 km/h 0 km/h 0 km/h 14.2 km/h
Racha vent: 45.4 km/h 0 km/h - -
Vent:NNW - - SW
Pressio: 34276.5 hPa 0 hPa 34212.1 hPa -
Pluja: 0 mm      
Historical Graphs
 
 
Tabular Data for Juliol 20, 2018
Time Temperature Dew Point Pressure Wind Wind Speed Wind Gust Humidity Rainfall Rate (Hourly) solar Conditions
-17.8 °C -17.8 °C 0 hPa Calm     Humidity % 0 mm SolarRadiationWatts/m^2 W/m2 Conditions
00:04 -5.7 °C -10.1 °C 34313.7 hPa Calm     61 % 0 mm 0.00 W/m2 CLR
00:09 -6.1 °C -10.4 °C 34313.7 hPa Calm     61 % 0 mm 0.00 W/m2 CLR
00:14 -6.1 °C -10.2 °C 34313.7 hPa Calm     62 % 0 mm 0.00 W/m2 CLR
00:19 -6.3 °C -10.7 °C 34313.7 hPa Calm     61 % 0 mm 0.00 W/m2 CLR
00:24 -6.3 °C -10.6 °C 34317.1 hPa Calm     62 % 0 mm 0.00 W/m2 CLR
00:25 -6.3 °C -10.4 °C 34317.1 hPa Calm     63 % 0 mm 0.00 W/m2 CLR
00:29 -6.7 °C -10.6 °C 34320.5 hPa Calm     64 % 0 mm 0.00 W/m2 CLR
00:34 -6.7 °C -10.4 °C 34320.5 hPa Calm     65 % 0 mm 0.00 W/m2 CLR
00:39 -6.7 °C -10.3 °C 34317.1 hPa Calm     66 % 0 mm 0.00 W/m2 CLR
00:44 -7 °C -10.4 °C 34317.1 hPa Calm     67 % 0 mm 0.00 W/m2 CLR
00:49 -7 °C -10.3 °C 34323.9 hPa Calm     68 % 0 mm 0.00 W/m2 CLR
00:54 -7.3 °C -10.4 °C 34323.9 hPa Calm     70 % 0 mm 0.00 W/m2 CLR
00:59 -7.3 °C -10.3 °C 34320.5 hPa Calm     71 % 0 mm 0.00 W/m2 CLR
01:04 -7.3 °C -10.2 °C 34327.3 hPa Calm     72 % 0 mm 0.00 W/m2 CLR
01:09 -7.3 °C -10.1 °C 34323.9 hPa Calm     73 % 0 mm 0.00 W/m2 CLR
01:14 -7.3 °C -10.1 °C 34323.9 hPa Calm     73 % 0 mm 0.00 W/m2 CLR
01:19 -7.6 °C -10.3 °C 34327.3 hPa Calm     73 % 0 mm 0.00 W/m2 CLR
01:24 -7.6 °C -10.2 °C 34337.4 hPa NNE 15.6 km/h 9.7 km/h 74 % 0 mm 0.00 W/m2 CLR
01:29 -7.6 °C -10.2 °C 34340.8 hPa North 20.9 km/h 1.8 km/h 74 % 0 mm 0.00 W/m2 CLR
01:34 -7.3 °C -10.1 °C 34340.8 hPa Calm     73 % 0 mm 0.00 W/m2 CLR
01:39 -7.3 °C -10.1 °C 34344.2 hPa Calm     73 % 0 mm 0.00 W/m2 CLR
01:44 -7.3 °C -10.1 °C 34334 hPa Calm     73 % 0 mm 0.00 W/m2 CLR
01:49 -7 °C -9.8 °C 34344.2 hPa West 6 km/h   72 % 0 mm 0.00 W/m2 CLR
01:54 -7 °C -9.8 °C 34340.8 hPa Calm     72 % 0 mm 0.00 W/m2 CLR
01:59 -7 °C -9.8 °C 34340.8 hPa Calm     72 % 0 mm 0.00 W/m2 CLR
02:04 -7 °C -9.8 °C 34340.8 hPa Calm     72 % 0 mm 0.00 W/m2 CLR
02:09 -7.3 °C -10.1 °C 34344.2 hPa Calm     73 % 0 mm 0.00 W/m2 CLR
02:14 -7.3 °C -10.2 °C 34344.2 hPa Calm     72 % 0 mm 0.00 W/m2 CLR
02:19 -7.3 °C -10.1 °C 34347.6 hPa Calm     73 % 0 mm 0.00 W/m2 CLR
02:24 -7.3 °C -10.1 °C 34351 hPa West 10.3 km/h 2.1 km/h 73 % 0 mm 0.00 W/m2 CLR
02:29 -7.3 °C -9.9 °C 34351 hPa West 11.9 km/h 6.4 km/h 74 % 0 mm 0.00 W/m2 CLR
02:34 -7.3 °C -9.7 °C 34351 hPa West 11.9 km/h 6 km/h 76 % 0 mm 0.00 W/m2 CLR
02:39 -7.3 °C -9.7 °C 34354.4 hPa West 20.9 km/h 12.9 km/h 76 % 0 mm 0.00 W/m2 CLR
02:44 -7 °C -9.4 °C 34351 hPa WNW 23.8 km/h 17.5 km/h 76 % 0 mm 0.00 W/m2 CLR
02:49 -6.7 °C -9.1 °C 34354.4 hPa WNW 20.9 km/h 11.6 km/h 76 % 0 mm 0.00 W/m2 CLR
02:54 -6.3 °C -8.8 °C 34351 hPa WNW 23.8 km/h 15 km/h 76 % 0 mm 0.00 W/m2 CLR
02:59 -6.1 °C -8.5 °C 34351 hPa WNW 23.8 km/h 16.6 km/h 76 % 0 mm 0.00 W/m2 CLR
03:04 -6.1 °C -8.5 °C 34347.6 hPa WNW 29.8 km/h 20.9 km/h 76 % 0 mm 0.00 W/m2 CLR
03:09 -5.7 °C -8.3 °C 34351 hPa WNW 23.8 km/h 14.8 km/h 75 % 0 mm 0.00 W/m2 CLR
03:14 -6.1 °C -8.6 °C 34347.6 hPa NW 28.5 km/h 24.3 km/h 75 % 0 mm 0.00 W/m2 CLR
03:19 -5.7 °C -8.3 °C 34351 hPa NW 32.8 km/h 20.8 km/h 75 % 0 mm 0.00 W/m2 CLR
03:24 -6.1 °C -8.7 °C 34351 hPa WNW 20.9 km/h 19.6 km/h 74 % 0 mm 0.00 W/m2 CLR
03:29 -6.1 °C -8.7 °C 34354.4 hPa WNW 29.8 km/h 17.4 km/h 74 % 0 mm 0.00 W/m2 CLR
03:34 -5.7 °C -8.4 °C 34351 hPa WNW 15 km/h 9.3 km/h 74 % 0 mm 0.00 W/m2 CLR
03:39 -5.7 °C -8.3 °C 34351 hPa West 23.8 km/h 6.8 km/h 75 % 0 mm 0.00 W/m2 CLR
03:44 -5.7 °C -8.3 °C 34351 hPa West 26.9 km/h 12.7 km/h 75 % 0 mm 0.00 W/m2 CLR
03:49 -5.7 °C -8.3 °C 34351 hPa WNW 15 km/h 12.2 km/h 75 % 0 mm 0.00 W/m2 CLR
03:54 -6.1 °C -8.6 °C 34354.4 hPa WNW 17.9 km/h 11.4 km/h 75 % 0 mm 0.00 W/m2 CLR
03:59 -6.3 °C -8.9 °C 34354.4 hPa West 11.9 km/h 1.8 km/h 75 % 0 mm 0.00 W/m2 CLR
04:04 -6.3 °C -8.9 °C 34354.4 hPa NW 11.9 km/h 8.5 km/h 75 % 0 mm 0.00 W/m2 CLR
04:09 -6.3 °C -8.9 °C 34354.4 hPa WNW 20.9 km/h 15 km/h 75 % 0 mm 0.00 W/m2 CLR
04:14 -6.3 °C -8.9 °C 34357.7 hPa NW 29.8 km/h 14.8 km/h 75 % 0 mm 0.00 W/m2 CLR
04:19 -6.3 °C -8.9 °C 34357.7 hPa WNW 9 km/h 6.4 km/h 75 % 0 mm 0.00 W/m2 CLR
04:24 -6.7 °C -9.2 °C 34354.4 hPa NW 7.7 km/h 2.6 km/h 75 % 0 mm 0.00 W/m2 CLR
04:29 -6.7 °C -9.2 °C 34357.7 hPa Calm     75 % 0 mm 0.00 W/m2 CLR
04:34 -6.7 °C -9.2 °C 34357.7 hPa West 9 km/h 1.3 km/h 75 % 0 mm 0.00 W/m2 CLR
04:39 -6.7 °C -9.2 °C 34357.7 hPa WNW 12.9 km/h 4.2 km/h 75 % 0 mm 0.00 W/m2 CLR
04:44 -6.7 °C -9.1 °C 34357.7 hPa NW 11.9 km/h 10.1 km/h 76 % 0 mm 0.00 W/m2 CLR
04:49 -7 °C -9.4 °C 34357.7 hPa Calm     76 % 0 mm 0.00 W/m2 CLR
04:54 -7 °C -9.4 °C 34354.4 hPa Calm     76 % 0 mm 0.00 W/m2 CLR
04:59 -7.3 °C -9.7 °C 34354.4 hPa Calm     76 % 0 mm 0.00 W/m2 CLR
05:04 -7.3 °C -9.7 °C 34354.4 hPa Calm     76 % 0 mm 0.00 W/m2 CLR
05:09 -7.6 °C -9.9 °C 34357.7 hPa Calm     77 % 0 mm 0.00 W/m2 CLR
05:14 -7.6 °C -9.9 °C 34357.7 hPa Calm     77 % 0 mm 0.00 W/m2 CLR
05:19 -7.9 °C -10.2 °C 34361.1 hPa Calm     77 % 0 mm 0.00 W/m2 CLR
05:24 -7.9 °C -10.2 °C 34364.5 hPa Calm     77 % 0 mm 0.00 W/m2 CLR
05:29 -7.9 °C -10.1 °C 34361.1 hPa Calm     78 % 0 mm 0.00 W/m2 CLR
05:34 -7.9 °C -10.1 °C 34354.4 hPa Calm     78 % 0 mm 0.00 W/m2 CLR
05:39 -7.9 °C -10.1 °C 34357.7 hPa Calm     78 % 0 mm 0.00 W/m2 CLR
05:44 -8.2 °C -10.2 °C 34354.4 hPa Calm     79 % 0 mm 0.00 W/m2 CLR
05:49 -8.2 °C -10.2 °C 34357.7 hPa Calm     79 % 0 mm 0.00 W/m2 CLR
05:54 -8.2 °C -10.2 °C 34361.1 hPa Calm     79 % 0 mm 0.00 W/m2 CLR
05:59 -8.2 °C -10.2 °C 34361.1 hPa Calm     79 % 0 mm 0.00 W/m2 CLR
06:04 -8.2 °C -10.2 °C 34357.7 hPa Calm     79 % 0 mm 0.00 W/m2 CLR
06:09 -8.2 °C -10.2 °C 34361.1 hPa Calm     79 % 0 mm 0.00 W/m2 CLR
06:14 -8.2 °C -10.2 °C 34364.5 hPa West 6 km/h 0.5 km/h 79 % 0 mm 0.00 W/m2 CLR
06:19 -8.2 °C -10.2 °C 34364.5 hPa Calm     80 % 0 mm 0.00 W/m2 CLR
06:24 -8.5 °C -10.4 °C 34364.5 hPa Calm     80 % 0 mm 0.00 W/m2 CLR
06:29 -8.5 °C -10.4 °C 34364.5 hPa WNW 6 km/h   80 % 0 mm 0.00 W/m2 CLR
06:34 -8.5 °C -10.4 °C 34367.9 hPa Calm     80 % 0 mm 0.00 W/m2 OVC
06:39 -8.5 °C -10.3 °C 34367.9 hPa Calm     81 % 0 mm 0.00 W/m2 OVC
06:44 -8.5 °C -10.3 °C 34367.9 hPa Calm     81 % 0 mm 5.00 W/m2 OVC
06:49 -8.5 °C -10.3 °C 34364.5 hPa Calm     81 % 0 mm 7.00 W/m2 OVC
06:54 -8.5 °C -10.3 °C 34367.9 hPa Calm     81 % 0 mm 9.00 W/m2 BKN
06:59 -8.8 °C -10.5 °C 34367.9 hPa Calm     82 % 0 mm 12.00 W/m2 BKN
07:04 -8.8 °C -10.5 °C 34367.9 hPa Calm     82 % 0 mm 18.00 W/m2 BKN
07:09 -8.8 °C -10.5 °C 34367.9 hPa Calm     82 % 0 mm 21.00 W/m2 BKN
07:14 -8.8 °C -10.5 °C 34371.3 hPa Calm     82 % 0 mm 25.00 W/m2 BKN
07:19 -8.8 °C -10.4 °C 34371.3 hPa Calm     83 % 0 mm 30.00 W/m2 BKN
07:24 -8.5 °C -10.2 °C 34371.3 hPa WSW 3.1 km/h 3.9 km/h 82 % 0 mm 35.00 W/m2 BKN
07:29 -8.5 °C -10.2 °C 34371.3 hPa WSW 3.1 km/h   82 % 0 mm 47.00 W/m2 SCT
07:34 -8.2 °C -9.9 °C 34371.3 hPa Calm     82 % 0 mm 56.00 W/m2 SCT
07:39 -7.9 °C -9.7 °C 34371.3 hPa Calm     81 % 0 mm 69.00 W/m2 SCT
07:44 -7.3 °C -9.1 °C 34371.3 hPa Calm     81 % 0 mm 79.00 W/m2 FEW
07:49 -7 °C -8.8 °C 34371.3 hPa Calm     81 % 0 mm 95.00 W/m2 FEW
07:54 -6.7 °C -8.7 °C 34371.3 hPa Calm     80 % 0 mm 107.00 W/m2 CLR
07:59 -6.7 °C -8.7 °C 34371.3 hPa Calm     80 % 0 mm 120.00 W/m2 CLR
08:04 -6.3 °C -8.6 °C 34371.3 hPa WNW 23.8 km/h 12.4 km/h 78 % 0 mm 137.00 W/m2 CLR
08:09 -6.1 °C -8.3 °C 34374.7 hPa NW 20.9 km/h 8.2 km/h 78 % 0 mm 149.00 W/m2 CLR
08:14 -6.1 °C -8.4 °C 34374.7 hPa WNW 23.8 km/h 16.1 km/h 77 % 0 mm 163.00 W/m2 CLR
08:19 -6.1 °C -8.4 °C 34374.7 hPa NW 29.8 km/h 12.4 km/h 77 % 0 mm 174.00 W/m2 CLR
08:24 -5.7 °C -8.2 °C 34374.7 hPa NW 23.8 km/h 11.9 km/h 76 % 0 mm 181.00 W/m2 CLR
08:29 -5.7 °C -8.2 °C 34378.1 hPa WNW 29.8 km/h 20.4 km/h 76 % 0 mm 128.00 W/m2 CLR
08:34 -5.7 °C -8.2 °C 34378.1 hPa NW 29.8 km/h 18.2 km/h 76 % 0 mm 227.00 W/m2 CLR
08:39 -5.7 °C -8.2 °C 34374.7 hPa NNW 15 km/h 14.2 km/h 76 % 0 mm 257.00 W/m2 CLR
08:44 -5.7 °C -8.2 °C 34374.7 hPa North 20.9 km/h 10.1 km/h 76 % 0 mm 260.00 W/m2 CLR
08:49 -5.7 °C -8.3 °C 34374.7 hPa NNW 23.8 km/h 20 km/h 75 % 0 mm 283.00 W/m2 CLR
08:54 -5.4 °C -8 °C 34378.1 hPa NNW 23.3 km/h 14 km/h 75 % 0 mm 295.00 W/m2 CLR
08:59 -5.4 °C -8.1 °C 34374.7 hPa NW 29.8 km/h 23.8 km/h 74 % 0 mm 316.00 W/m2 CLR
09:04 -5.4 °C -8.1 °C 34378.1 hPa NW 23.8 km/h 12.4 km/h 74 % 0 mm 329.00 W/m2 CLR
09:09 -5.4 °C -8.1 °C 34378.1 hPa North 20.9 km/h 16.3 km/h 74 % 0 mm 345.00 W/m2 CLR
09:14 -5.4 °C -8.2 °C 34378.1 hPa NW 17.9 km/h 12.4 km/h 73 % 0 mm 332.00 W/m2 CLR
09:19 -5.4 °C -8.2 °C 34378.1 hPa West 20.9 km/h 13.7 km/h 73 % 0 mm 471.00 W/m2 CLR
09:24 -5.1 °C -7.9 °C 34378.1 hPa NW 26.9 km/h 15.8 km/h 73 % 0 mm 480.00 W/m2 CLR
09:29 -5.1 °C -7.9 °C 34381.4 hPa NNW 17.9 km/h 10.1 km/h 73 % 0 mm 172.00 W/m2 CLR
09:34 -4.8 °C -7.8 °C 34381.4 hPa NNW 15.6 km/h 2.1 km/h 72 % 0 mm 260.00 W/m2 CLR
09:39 -4.5 °C -7.4 °C 34384.8 hPa NNW 11.9 km/h 7.7 km/h 72 % 0 mm 213.00 W/m2 CLR
09:44 -4.8 °C -7.9 °C 34384.8 hPa West 17.9 km/h 11.4 km/h 71 % 0 mm 513.00 W/m2 CLR
09:49 -5.1 °C -8.2 °C 34384.8 hPa North 23.8 km/h 15 km/h 71 % 0 mm 190.00 W/m2 CLR
09:54 -4.8 °C -7.9 °C 34384.8 hPa North 23.8 km/h 13.7 km/h 71 % 0 mm 503.00 W/m2 CLR
09:59 -4.8 °C -7.9 °C 34378.1 hPa WNW 17.9 km/h 10.6 km/h 71 % 0 mm 531.00 W/m2 CLR
10:04 -4.5 °C -7.9 °C 34381.4 hPa WNW 17.9 km/h 6.8 km/h 69 % 0 mm 543.00 W/m2 CLR
10:09 -4.8 °C -8.2 °C 34381.4 hPa NNW 23.8 km/h 14.2 km/h 69 % 0 mm 573.00 W/m2 CLR
10:14 -4.8 °C -8.3 °C 34378.1 hPa North 15.6 km/h 5.6 km/h 68 % 0 mm 185.00 W/m2 CLR
10:19 -4.5 °C -8 °C 34374.7 hPa NW 17.9 km/h 4.3 km/h 68 % 0 mm 570.00 W/m2 CLR
10:24 -4.5 °C -8 °C 34374.7 hPa NW 15 km/h 10.1 km/h 68 % 0 mm 589.00 W/m2 CLR
10:29 -4.2 °C -7.8 °C 34371.3 hPa NNE 17.9 km/h 6.3 km/h 67 % 0 mm 596.00 W/m2 CLR
10:34 -4.2 °C -7.8 °C 34367.9 hPa North 15 km/h 9.8 km/h 67 % 0 mm 612.00 W/m2 CLR
10:39 -4.2 °C -7.9 °C 34371.3 hPa North 15.6 km/h 11.4 km/h 66 % 0 mm 633.00 W/m2 CLR
10:44 -3.9 °C -7.8 °C 34367.9 hPa NNW 9 km/h 2.9 km/h 65 % 0 mm 635.00 W/m2 CLR
10:49 -3.9 °C -7.9 °C 34367.9 hPa NW 17.9 km/h 15.6 km/h 64 % 0 mm 663.00 W/m2 CLR
10:54 -3.9 °C -7.9 °C 34364.5 hPa NNW 11.9 km/h 11.1 km/h 64 % 0 mm 657.00 W/m2 CLR
10:59 -3.9 °C -8.1 °C 34367.9 hPa NW 6 km/h   63 % 0 mm 679.00 W/m2 CLR
11:04 -3.6 °C -7.7 °C 34371.3 hPa Calm     64 % 0 mm 696.00 W/m2 CLR
11:09 -3.9 °C -8.2 °C 34371.3 hPa Calm     62 % 0 mm 707.00 W/m2 CLR
11:14 -3.6 °C -7.8 °C 34367.9 hPa NE 10.3 km/h 1.3 km/h 63 % 0 mm 717.00 W/m2 CLR
11:19 -3.6 °C -7.9 °C 34371.3 hPa West 20.9 km/h 15.6 km/h 62 % 0 mm 777.00 W/m2 CLR
11:24 -3.6 °C -8.1 °C 34367.9 hPa Calm     61 % 0 mm 728.00 W/m2 CLR
11:29 -2.9 °C -7.6 °C 34371.3 hPa West 9 km/h 7.2 km/h 60 % 0 mm 717.00 W/m2 CLR
11:34 -3.3 °C -7.9 °C 34378.1 hPa NW 2.6 km/h 3.7 km/h 60 % 0 mm 814.00 W/m2 CLR
11:39 -2.9 °C -7.8 °C 34378.1 hPa West 15 km/h 1.3 km/h 59 % 0 mm 798.00 W/m2 CLR
11:44 -2.9 °C -7.9 °C 34374.7 hPa WSW 17.9 km/h 12.4 km/h 58 % 0 mm 807.00 W/m2 CLR
11:49 -2.7 °C -7.5 °C 34374.7 hPa West 6 km/h   59 % 0 mm 807.00 W/m2 CLR
11:54 -2.7 °C -7.5 °C 34371.3 hPa Calm   0.3 km/h 59 % 0 mm 817.00 W/m2 CLR
11:59 -2.7 °C -7.7 °C 34371.3 hPa West 15 km/h 6.4 km/h 58 % 0 mm 809.00 W/m2 CLR
12:04 -2.7 °C -7.7 °C 34371.3 hPa West 20.9 km/h 10.9 km/h 58 % 0 mm 821.00 W/m2 CLR
12:09 -2.7 °C -7.5 °C 34364.5 hPa North 20.9 km/h 17.1 km/h 59 % 0 mm 817.00 W/m2 CLR
12:14 -2.7 °C -7.8 °C 34367.9 hPa NNW 26.9 km/h 6.8 km/h 57 % 0 mm 831.00 W/m2 CLR
12:19 -2.3 °C -7.8 °C 34364.5 hPa Calm     55 % 0 mm 835.00 W/m2 CLR
12:24 -2.7 °C -8.1 °C 34364.5 hPa Calm     55 % 0 mm 840.00 W/m2 CLR
12:29 -2.3 °C -7.8 °C 34367.9 hPa NNW 11.9 km/h 4.2 km/h 55 % 0 mm 849.00 W/m2 CLR
12:34 -2.1 °C -7.7 °C 34361.1 hPa NNW 9 km/h 5.1 km/h 54 % 0 mm 849.00 W/m2 CLR
12:39 -2.1 °C -7.9 °C 34354.4 hPa Calm     53 % 0 mm 849.00 W/m2 CLR
12:44 -2.1 °C -8.2 °C 34351 hPa North 26.9 km/h 12.7 km/h 51 % 0 mm 858.00 W/m2 CLR
12:49 -2.1 °C -8 °C 34351 hPa NW 15 km/h 1.3 km/h 52 % 0 mm 865.00 W/m2 CLR
12:54 -2.1 °C -8.2 °C 34347.6 hPa North 15 km/h   51 % 0 mm 870.00 W/m2 CLR
12:59 -2.1 °C -8 °C 34344.2 hPa Calm     52 % 0 mm 882.00 W/m2 CLR
13:04 -2.1 °C -8.2 °C 34347.6 hPa NW 17.9 km/h 11.1 km/h 51 % 0 mm 889.00 W/m2 CLR
13:09 -1.7 °C -8.1 °C 34340.8 hPa NW 15 km/h 3.1 km/h 50 % 0 mm 891.00 W/m2 CLR
13:14 -1.7 °C -8.3 °C 34340.8 hPa WNW 6 km/h   49 % 0 mm 900.00 W/m2 CLR
13:19 -1.7 °C -8.3 °C 34340.8 hPa NNW 9 km/h 2.6 km/h 49 % 0 mm 902.00 W/m2 CLR
13:24 -1.7 °C -8.4 °C 34344.2 hPa Calm     48 % 0 mm 898.00 W/m2 CLR
13:29 -1.7 °C -8.7 °C 34340.8 hPa North 11.9 km/h 3.9 km/h 47 % 0 mm 909.00 W/m2 CLR
13:34 -1.7 °C -8.4 °C 34340.8 hPa North 3.1 km/h   48 % 0 mm 912.00 W/m2 CLR
13:39 -1.4 °C -8.6 °C 34334 hPa NNW 17.9 km/h 9 km/h 46 % 0 mm 918.00 W/m2 CLR
13:44 -1.4 °C -8.4 °C 34330.7 hPa Calm     47 % 0 mm 911.00 W/m2 CLR
13:49 -1.4 °C -9.1 °C 34327.3 hPa Calm     43 % 0 mm 914.00 W/m2 CLR
13:54 -1.7 °C -9.2 °C 34323.9 hPa Calm     44 % 0 mm 921.00 W/m2 CLR
13:59 -1.7 °C -9 °C 34320.5 hPa Calm     45 % 0 mm 921.00 W/m2 CLR
14:04 -1.4 °C -8.7 °C 34317.1 hPa Calm     45 % 0 mm 919.00 W/m2 CLR
14:09 -1.1 °C -8.4 °C 34317.1 hPa NW 9 km/h 0.5 km/h 45 % 0 mm 925.00 W/m2 CLR
14:14 -1.1 °C -8.8 °C 34317.1 hPa ENE 20.9 km/h 7.2 km/h 43 % 0 mm 923.00 W/m2 CLR
14:19 -1.1 °C -8.7 °C 34313.7 hPa NE 15 km/h 13.5 km/h 44 % 0 mm 928.00 W/m2 CLR
14:24 -1.1 °C -8.7 °C 34313.7 hPa East 11.9 km/h 4.3 km/h 44 % 0 mm 925.00 W/m2 CLR
14:29 -1.1 °C -8.7 °C 34310.3 hPa Calm     44 % 0 mm 928.00 W/m2 CLR
14:34 -1.1 °C -8.8 °C 34310.3 hPa Calm     43 % 0 mm 926.00 W/m2 CLR
14:39 -0.8 °C -8.4 °C 34310.3 hPa NNW 10.3 km/h 8.2 km/h 44 % 0 mm 923.00 W/m2 CLR
14:44 -0.8 °C -8.4 °C 34307 hPa WNW 17.9 km/h 8 km/h 44 % 0 mm 914.00 W/m2 CLR
14:49 -0.8 °C -8.4 °C 34303.6 hPa Calm     44 % 0 mm 909.00 W/m2 CLR
14:54 -0.5 °C -8.1 °C 34300.2 hPa Calm     44 % 0 mm 905.00 W/m2 CLR
14:59 -0.5 °C -8.3 °C 34296.8 hPa SSW 17.9 km/h 2.9 km/h 43 % 0 mm 909.00 W/m2 CLR
15:04 -0.2 °C -7.8 °C 34296.8 hPa ESE 11.9 km/h   44 % 0 mm 902.00 W/m2 CLR
15:09 -0.2 °C -8.2 °C 34293.4 hPa ENE 9 km/h   42 % 0 mm 893.00 W/m2 CLR
15:14 -0.2 °C -8.7 °C 34290 hPa Calm     40 % 0 mm 895.00 W/m2 CLR
15:19 -0.2 °C -8.4 °C 34286.6 hPa SW 9 km/h 3.7 km/h 41 % 0 mm 891.00 W/m2 CLR
15:24 -0.5 °C -8.5 °C 34286.6 hPa North 5.1 km/h 1.3 km/h 42 % 0 mm 882.00 W/m2 CLR
15:29 -0.8 °C -9 °C 34286.6 hPa NNE 9 km/h 7.6 km/h 41 % 0 mm 877.00 W/m2 CLR
15:34 -0.8 °C -8.8 °C 34286.6 hPa ENE 11.9 km/h 3.9 km/h 42 % 0 mm 863.00 W/m2 CLR
15:39 -0.8 °C -9 °C 34283.3 hPa East 15 km/h 2.1 km/h 41 % 0 mm 860.00 W/m2 CLR
15:44 -0.8 °C -9 °C 34279.9 hPa ENE 26.9 km/h 22 km/h 41 % 0 mm 861.00 W/m2 CLR
15:49 -0.5 °C -8.7 °C 34276.5 hPa North 23.8 km/h 15 km/h 41 % 0 mm 858.00 W/m2 CLR
15:54 -0.5 °C -8.9 °C 34269.7 hPa NE 10.3 km/h 5.6 km/h 40 % 0 mm 854.00 W/m2 CLR
15:59 -0.5 °C -8.9 °C 34269.7 hPa ESE 23.8 km/h 9.7 km/h 40 % 0 mm 849.00 W/m2 CLR
16:04 -0.8 °C -9 °C 34269.7 hPa East 23.8 km/h 16.9 km/h 41 % 0 mm 844.00 W/m2 CLR
16:09 -0.5 °C -8.9 °C 34266.3 hPa NNE 11.9 km/h   40 % 0 mm 840.00 W/m2 CLR
16:14 -0.5 °C -9.2 °C 34266.3 hPa East 35.7 km/h 8 km/h 39 % 0 mm 830.00 W/m2 CLR
16:19 -0.8 °C -9.2 °C 34262.9 hPa ESE 23.8 km/h 8.9 km/h 40 % 0 mm 780.00 W/m2 CLR
16:24 -0.8 °C -9.2 °C 34256.2 hPa ENE 29.8 km/h 22.9 km/h 40 % 0 mm 784.00 W/m2 CLR
16:29 -0.5 °C -9.2 °C 34256.2 hPa ENE 26.9 km/h 18.8 km/h 39 % 0 mm 780.00 W/m2 CLR
16:34 -0.5 °C -9.4 °C 34252.8 hPa East 17.9 km/h 6.9 km/h 38 % 0 mm 766.00 W/m2 CLR
16:39 -0.8 °C -9.9 °C 34246 hPa NNE 26.9 km/h 21.2 km/h 37 % 0 mm 773.00 W/m2 CLR
16:44 -0.8 °C -9.7 °C 34232.5 hPa ENE 23.8 km/h 18.3 km/h 38 % 0 mm 765.00 W/m2 CLR
16:49 -0.5 °C -9.8 °C 34239.2 hPa ENE 32.8 km/h 23.3 km/h 36 % 0 mm 779.00 W/m2 CLR
16:54 -0.5 °C -10.3 °C 34242.6 hPa ENE 29.8 km/h 6.4 km/h 34 % 0 mm 789.00 W/m2 CLR
16:59 -0.5 °C -10.3 °C 34229.1 hPa NNE 33.6 km/h 24.6 km/h 34 % 0 mm 772.00 W/m2 CLR
17:04 -0.5 °C -10.9 °C 34222.3 hPa NNE 20.9 km/h 10.9 km/h 32 % 0 mm 754.00 W/m2 CLR
17:09 -0.5 °C -10.6 °C 34218.9 hPa NE 41.7 km/h 23.8 km/h 33 % 0 mm 740.00 W/m2 CLR
17:14 -0.5 °C -10.6 °C 34218.9 hPa NE 17.9 km/h 12.4 km/h 33 % 0 mm 715.00 W/m2 CLR
17:19 -0.5 °C -10.1 °C 34212.1 hPa NE 35.7 km/h 30.1 km/h 35 % 0 mm 701.00 W/m2 CLR
17:24 -0.5 °C -10.1 °C 34218.9 hPa NNE 28.5 km/h 18.2 km/h 35 % 0 mm 749.00 W/m2 CLR
17:29 -0.2 °C -10.3 °C 34232.5 hPa North 29.8 km/h 8.5 km/h 33 % 0 mm 747.00 W/m2 CLR
17:34 0.1 °C -10.1 °C 34232.5 hPa NNE 29.8 km/h 8.9 km/h 33 % 0 mm 772.00 W/m2 CLR
17:39 0.1 °C -9.8 °C 34235.8 hPa Calm     34 % 0 mm 738.00 W/m2 CLR
17:44 0.1 °C -7.3 °C 34242.6 hPa SW 65.5 km/h 43 km/h 45 % 0 mm 726.00 W/m2 CLR
17:49 -0.8 °C -6.9 °C 34246 hPa SSE 35.7 km/h 20 km/h 52 % 0 mm 294.00 W/m2 CLR
17:54 -1.4 °C -7.1 °C 34225.7 hPa SSW 44.7 km/h 22.2 km/h 54 % 0 mm 329.00 W/m2 CLR
17:59 -1.7 °C -6.9 °C 34225.7 hPa SSE 35.7 km/h 20.9 km/h 57 % 0 mm 239.00 W/m2 CLR
18:04 -2.1 °C -6.9 °C 34212.1 hPa SSW 44.7 km/h 17.4 km/h 59 % 0 mm 278.00 W/m2 CLR
18:09 -2.1 °C -6.8 °C 34212.1 hPa SSW 38.8 km/h 25.1 km/h 60 % 0 mm 209.00 W/m2 CLR
18:14 -2.3 °C -7.1 °C 34222.3 hPa SW 35.7 km/h 17.4 km/h 60 % 0 mm 86.00 W/m2 CLR
18:19 -2.7 °C -7.3 °C 34262.9 hPa WSW 44.1 km/h 25.1 km/h 60 % 0 mm 70.00 W/m2 CLR
18:24 -2.3 °C -6.9 °C 34262.9 hPa SW 74.5 km/h 55.4 km/h 61 % 0 mm 128.00 W/m2 FEW
18:29 -2.7 °C -7.9 °C 34256.2 hPa SW 74.5 km/h 31.4 km/h 56 % 0 mm 211.00 W/m2 CLR
18:34 -2.7 °C -8.6 °C 34242.6 hPa SW 50.7 km/h 34.9 km/h 52 % 0 mm 589.00 W/m2 CLR
18:39 -2.3 °C -8.3 °C 34232.5 hPa SSW 31.1 km/h 27.5 km/h 52 % 0 mm 476.00 W/m2 CLR
18:44 -2.3 °C -8 °C 34235.8 hPa South 50.7 km/h 35.2 km/h 54 % 0 mm 422.00 W/m2 CLR
18:49 -2.7 °C -8.1 °C 34239.2 hPa South 38.8 km/h 34.9 km/h 55 % 0 mm 406.00 W/m2 CLR
18:54 -2.7 °C -8.3 °C 34235.8 hPa SSE 26.9 km/h 15.3 km/h 54 % 0 mm 408.00 W/m2 CLR
18:59 -2.7 °C -8.3 °C 34239.2 hPa SW 15 km/h 8 km/h 54 % 0 mm 360.00 W/m2 CLR
19:04 -2.3 °C -8.7 °C 34239.2 hPa SSE 11.9 km/h 10.3 km/h 50 % 0 mm 381.00 W/m2 CLR
19:09 -2.3 °C -8.8 °C 34242.6 hPa SW 23.8 km/h 17.5 km/h 49 % 0 mm 371.00 W/m2 CLR
19:14 -2.3 °C -8.2 °C 34242.6 hPa SSW 41.7 km/h 31.1 km/h 53 % 0 mm 90.00 W/m2 CLR
19:19 -2.9 °C -8.6 °C 34239.2 hPa SW 35.7 km/h 21.6 km/h 54 % 0 mm 53.00 W/m2 FEW
19:24 -3.3 °C -8.8 °C 34235.8 hPa SSW 29.8 km/h 19.5 km/h 54 % 0 mm 86.00 W/m2 FEW
19:29 -3.6 °C -8.7 °C 34239.2 hPa SW 29.8 km/h 11.4 km/h 57 % 0 mm 105.00 W/m2 FEW
19:34 -3.6 °C -8.5 °C 34239.2 hPa WSW 20.9 km/h 16.9 km/h 58 % 0 mm 248.00 W/m2 CLR
19:39 -3.6 °C -8.7 °C 34239.2 hPa SW 9 km/h 3.4 km/h 57 % 0 mm 234.00 W/m2 CLR
19:44 -3.3 °C -8.4 °C 34239.2 hPa Calm     57 % 0 mm 188.00 W/m2 CLR
19:49 -3.3 °C -8.8 °C 34242.6 hPa SW 26.9 km/h 18.3 km/h 54 % 0 mm 79.00 W/m2 CLR
19:54 -3.3 °C -8.8 °C 34235.8 hPa Calm     54 % 0 mm 54.00 W/m2 FEW
19:59 -3.6 °C -9.3 °C 34232.5 hPa SW 9 km/h 6.4 km/h 53 % 0 mm 47.00 W/m2 SCT
20:04 -3.6 °C -9.3 °C 34249.4 hPa North 23.8 km/h 17.9 km/h 53 % 0 mm 33.00 W/m2 SCT
20:09 -3.6 °C -9.6 °C 34242.6 hPa North 17.9 km/h 12.7 km/h 51 % 0 mm 23.00 W/m2 BKN
20:14 -3.6 °C -9.3 °C 34242.6 hPa North 15 km/h 8.9 km/h 53 % 0 mm 16.00 W/m2 BKN
20:19 -3.6 °C -9.1 °C 34249.4 hPa North 41.7 km/h 36.2 km/h 54 % 0 mm 9.00 W/m2 BKN
20:24 -3.6 °C -9 °C 34276.5 hPa NNW 56.6 km/h 45.4 km/h 55 % 0 mm 0.00 W/m2 BKN
Lo Temps de Massalio
Compliments of Weather Underground - 1 mb